AJT1175 KMGW-KCLE
Flight info
| Callsign | AJT1175 |
|---|---|
| Flight time | 0h 36m |
| Altitude | 16000 |
| Route | MGW AIR BSV RITZS |
| Aircraft | B722/M-SDFGHRWY/W |
Departure
| Time | 2026-05-05 22:22 |
|---|---|
| Airport | Morgantown Municipal Airport Walter L. (Bill) Hart Field (KMGW) |
Arrival
| Time | 2026-05-05 22:59 |
|---|---|
| Airport | Cleveland Hopkins International Airport (KCLE) |
| Time | Latitude | Longitude | Altitude | Speed | Heading |
|---|---|---|---|---|---|
| 2026-05-05 22:07 | 39.64341 | -79.91905 | 1258 ft | 0 kts | 264° |
| 2026-05-05 22:18 | 39.64341 | -79.91906 | 1253 ft | 0 kts | 264° |
| 2026-05-05 22:18 | 39.64341 | -79.91908 | 1253 ft | 2 kts | 268° |
| 2026-05-05 22:19 | 39.64347 | -79.91926 | 1262 ft | 3 kts | 317° |
| 2026-05-05 22:19 | 39.64417 | -79.91948 | 1258 ft | 18 kts | 6° |
| 2026-05-05 22:19 | 39.64548 | -79.91917 | 1259 ft | 19 kts | 6° |
| 2026-05-05 22:19 | 39.64694 | -79.91925 | 1258 ft | 21 kts | 351° |
| 2026-05-05 22:20 | 39.64845 | -79.91958 | 1252 ft | 23 kts | 355° |
| 2026-05-05 22:20 | 39.64997 | -79.91976 | 1256 ft | 17 kts | 356° |
| 2026-05-05 22:20 | 39.65053 | -79.91900 | 1247 ft | 14 kts | 118° |
| 2026-05-05 22:20 | 39.65004 | -79.91868 | 1252 ft | 0 kts | 171° |
| 2026-05-05 22:21 | 39.64959 | -79.91859 | 1251 ft | 25 kts | 172° |
| 2026-05-05 22:21 | 39.64577 | -79.91795 | 1260 ft | 86 kts | 173° |
| 2026-05-05 22:21 | 39.63807 | -79.91661 | 1264 ft | 134 kts | 174° |
| 2026-05-05 22:22 | 39.62854 | -79.91508 | 1712 ft | 138 kts | 184° |
| 2026-05-05 22:22 | 39.61893 | -79.91390 | 2241 ft | 144 kts | 169° |
| 2026-05-05 22:22 | 39.60896 | -79.90991 | 2768 ft | 152 kts | 172° |
| 2026-05-05 22:22 | 39.59865 | -79.90645 | 3329 ft | 154 kts | 176° |
| 2026-05-05 22:23 | 39.58858 | -79.90243 | 3946 ft | 151 kts | 172° |
| 2026-05-05 22:23 | 39.57877 | -79.89810 | 4586 ft | 148 kts | 171° |
| 2026-05-05 22:23 | 39.56907 | -79.89403 | 5197 ft | 144 kts | 176° |
| 2026-05-05 22:23 | 39.55940 | -79.89289 | 5735 ft | 140 kts | 189° |
| 2026-05-05 22:24 | 39.54969 | -79.89332 | 6210 ft | 138 kts | 201° |
| 2026-05-05 22:24 | 39.54292 | -79.90123 | 6624 ft | 136 kts | 241° |
| 2026-05-05 22:24 | 39.54085 | -79.91354 | 7013 ft | 154 kts | 276° |
| 2026-05-05 22:24 | 39.54359 | -79.92799 | 7404 ft | 177 kts | 281° |
| 2026-05-05 22:25 | 39.54723 | -79.94411 | 7855 ft | 198 kts | 283° |
| 2026-05-05 22:25 | 39.55232 | -79.96185 | 8337 ft | 221 kts | 287° |
| 2026-05-05 22:25 | 39.55856 | -79.98009 | 8813 ft | 223 kts | 289° |
| 2026-05-05 22:25 | 39.56587 | -79.99787 | 9261 ft | 228 kts | 295° |
| 2026-05-05 22:26 | 39.57418 | -80.01536 | 9695 ft | 226 kts | 296° |
| 2026-05-05 22:26 | 39.58262 | -80.03293 | 10079 ft | 231 kts | 295° |
| 2026-05-05 22:26 | 39.59155 | -80.05147 | 10476 ft | 255 kts | 296° |
| 2026-05-05 22:26 | 39.60163 | -80.07169 | 10906 ft | 280 kts | 298° |
| 2026-05-05 22:27 | 39.61293 | -80.09326 | 11359 ft | 291 kts | 300° |
| 2026-05-05 22:27 | 39.62465 | -80.11468 | 11771 ft | 292 kts | 301° |
| 2026-05-05 22:27 | 39.63654 | -80.13598 | 12182 ft | 292 kts | 301° |
| 2026-05-05 22:27 | 39.64852 | -80.15730 | 12580 ft | 293 kts | 301° |
| 2026-05-05 22:28 | 39.66057 | -80.17868 | 12997 ft | 294 kts | 301° |
| 2026-05-05 22:28 | 39.67263 | -80.20009 | 13394 ft | 294 kts | 301° |
| 2026-05-05 22:28 | 39.68472 | -80.22153 | 13803 ft | 295 kts | 301° |
| 2026-05-05 22:28 | 39.69686 | -80.24314 | 14173 ft | 297 kts | 301° |
| 2026-05-05 22:29 | 39.70905 | -80.26487 | 14563 ft | 299 kts | 301° |
| 2026-05-05 22:29 | 39.72133 | -80.28683 | 14930 ft | 301 kts | 301° |
| 2026-05-05 22:29 | 39.73371 | -80.30885 | 15320 ft | 303 kts | 301° |
| 2026-05-05 22:29 | 39.74620 | -80.33103 | 15705 ft | 305 kts | 301° |
| 2026-05-05 22:30 | 39.75882 | -80.35340 | 15954 ft | 311 kts | 301° |
| 2026-05-05 22:30 | 39.77159 | -80.37609 | 15966 ft | 319 kts | 301° |
| 2026-05-05 22:30 | 39.78525 | -80.40047 | 15978 ft | 349 kts | 302° |
| 2026-05-05 22:30 | 39.80019 | -80.42694 | 15975 ft | 377 kts | 302° |
| 2026-05-05 22:31 | 39.81622 | -80.45509 | 15979 ft | 390 kts | 303° |
| 2026-05-05 22:31 | 39.83243 | -80.48332 | 15968 ft | 388 kts | 303° |
| 2026-05-05 22:31 | 39.84851 | -80.51147 | 15953 ft | 388 kts | 303° |
| 2026-05-05 22:31 | 39.86450 | -80.53978 | 15953 ft | 388 kts | 302° |
| 2026-05-05 22:32 | 39.88043 | -80.56815 | 15961 ft | 387 kts | 302° |
| 2026-05-05 22:32 | 39.89625 | -80.59641 | 15948 ft | 388 kts | 301° |
| 2026-05-05 22:32 | 39.91218 | -80.62495 | 15947 ft | 388 kts | 301° |
| 2026-05-05 22:32 | 39.92802 | -80.65334 | 15948 ft | 388 kts | 302° |
| 2026-05-05 22:33 | 39.94388 | -80.68174 | 15948 ft | 388 kts | 302° |
| 2026-05-05 22:33 | 39.95973 | -80.71017 | 15945 ft | 388 kts | 302° |
| 2026-05-05 22:33 | 39.97560 | -80.73865 | 15964 ft | 388 kts | 302° |
| 2026-05-05 22:33 | 39.99185 | -80.76683 | 15952 ft | 389 kts | 303° |
| 2026-05-05 22:34 | 40.00892 | -80.79443 | 15949 ft | 391 kts | 306° |
| 2026-05-05 22:34 | 40.02670 | -80.82073 | 15892 ft | 394 kts | 310° |
| 2026-05-05 22:34 | 40.04785 | -80.84391 | 15962 ft | 403 kts | 319° |
| 2026-05-05 22:34 | 40.07101 | -80.86454 | 15960 ft | 403 kts | 322° |
| 2026-05-05 22:35 | 40.09462 | -80.88440 | 15964 ft | 405 kts | 323° |
| 2026-05-05 22:35 | 40.11861 | -80.90369 | 15973 ft | 404 kts | 323° |
| 2026-05-05 22:35 | 40.14247 | -80.92278 | 15948 ft | 404 kts | 323° |
| 2026-05-05 22:35 | 40.16630 | -80.94220 | 15939 ft | 403 kts | 323° |
| 2026-05-05 22:36 | 40.18999 | -80.96183 | 15938 ft | 403 kts | 322° |
| 2026-05-05 22:36 | 40.21354 | -80.98167 | 15938 ft | 403 kts | 322° |
| 2026-05-05 22:36 | 40.23708 | -81.00158 | 15936 ft | 402 kts | 322° |
| 2026-05-05 22:36 | 40.26053 | -81.02140 | 15934 ft | 403 kts | 322° |
| 2026-05-05 22:37 | 40.28415 | -81.04134 | 15943 ft | 402 kts | 322° |
| 2026-05-05 22:37 | 40.30774 | -81.06111 | 15944 ft | 403 kts | 322° |
| 2026-05-05 22:37 | 40.33139 | -81.08091 | 15970 ft | 403 kts | 322° |
| 2026-05-05 22:37 | 40.35491 | -81.10085 | 15972 ft | 403 kts | 322° |
| 2026-05-05 22:38 | 40.37842 | -81.12085 | 15973 ft | 403 kts | 322° |
| 2026-05-05 22:38 | 40.40196 | -81.14088 | 15944 ft | 403 kts | 322° |
| 2026-05-05 22:38 | 40.42544 | -81.16083 | 15767 ft | 402 kts | 322° |
| 2026-05-05 22:38 | 40.44891 | -81.18071 | 15590 ft | 401 kts | 322° |
| 2026-05-05 22:39 | 40.47229 | -81.20052 | 15403 ft | 400 kts | 322° |
| 2026-05-05 22:39 | 40.49564 | -81.22032 | 15222 ft | 398 kts | 322° |
| 2026-05-05 22:39 | 40.51888 | -81.24005 | 15027 ft | 398 kts | 322° |
| 2026-05-05 22:39 | 40.54200 | -81.25968 | 14765 ft | 398 kts | 322° |
| 2026-05-05 22:40 | 40.56524 | -81.27942 | 14351 ft | 394 kts | 322° |
| 2026-05-05 22:40 | 40.58833 | -81.29912 | 13969 ft | 394 kts | 322° |
| 2026-05-05 22:40 | 40.61133 | -81.31870 | 13559 ft | 393 kts | 322° |
| 2026-05-05 22:40 | 40.63421 | -81.33816 | 13099 ft | 389 kts | 322° |
| 2026-05-05 22:41 | 40.65684 | -81.35742 | 12496 ft | 385 kts | 322° |
| 2026-05-05 22:41 | 40.67920 | -81.37646 | 11896 ft | 380 kts | 322° |
| 2026-05-05 22:41 | 40.70123 | -81.39527 | 11304 ft | 375 kts | 322° |
| 2026-05-05 22:41 | 40.72241 | -81.41396 | 10999 ft | 353 kts | 320° |
| 2026-05-05 22:42 | 40.74142 | -81.43228 | 10985 ft | 324 kts | 316° |
| 2026-05-05 22:42 | 40.75823 | -81.45028 | 10988 ft | 299 kts | 313° |
| 2026-05-05 22:42 | 40.77333 | -81.46770 | 10989 ft | 281 kts | 311° |
| 2026-05-05 22:42 | 40.78772 | -81.48501 | 10998 ft | 279 kts | 310° |
| 2026-05-05 22:43 | 40.80202 | -81.50234 | 10996 ft | 280 kts | 311° |
| 2026-05-05 22:43 | 40.81213 | -81.51303 | 11019 ft | 286 kts | 321° |
| 2026-05-05 22:43 | 40.83176 | -81.52146 | 11030 ft | 310 kts | 346° |
| 2026-05-05 22:43 | 40.86050 | -81.52310 | 11018 ft | 313 kts | 353° |
| 2026-05-05 22:44 | 40.87522 | -81.52330 | 11016 ft | 313 kts | 353° |
| 2026-05-05 22:44 | 40.90417 | -81.52383 | 11017 ft | 315 kts | 353° |
| 2026-05-05 22:44 | 40.91894 | -81.52404 | 11013 ft | 314 kts | 353° |
| 2026-05-05 22:44 | 40.94079 | -81.52431 | 10853 ft | 316 kts | 353° |
| 2026-05-05 22:45 | 40.97009 | -81.52488 | 10228 ft | 318 kts | 353° |
| 2026-05-05 22:45 | 40.98503 | -81.52519 | 9908 ft | 317 kts | 353° |
| 2026-05-05 22:45 | 41.00716 | -81.52564 | 9352 ft | 319 kts | 353° |
| 2026-05-05 22:45 | 41.02939 | -81.52611 | 8775 ft | 319 kts | 353° |
| 2026-05-05 22:46 | 41.05160 | -81.52656 | 8224 ft | 319 kts | 353° |
| 2026-05-05 22:46 | 41.07374 | -81.52707 | 7668 ft | 318 kts | 353° |
| 2026-05-05 22:46 | 41.09583 | -81.52761 | 7119 ft | 317 kts | 353° |
| 2026-05-05 22:46 | 41.11758 | -81.52823 | 6592 ft | 315 kts | 353° |
| 2026-05-05 22:47 | 41.13951 | -81.52894 | 6053 ft | 315 kts | 353° |
| 2026-05-05 22:47 | 41.16135 | -81.52978 | 5492 ft | 313 kts | 353° |
| 2026-05-05 22:47 | 41.18310 | -81.53056 | 4952 ft | 313 kts | 354° |
| 2026-05-05 22:47 | 41.20480 | -81.53128 | 4391 ft | 310 kts | 353° |
| 2026-05-05 22:48 | 41.22605 | -81.53226 | 4017 ft | 296 kts | 353° |
| 2026-05-05 22:48 | 41.24576 | -81.53291 | 4008 ft | 274 kts | 353° |
| 2026-05-05 22:48 | 41.26425 | -81.53347 | 4009 ft | 258 kts | 353° |
| 2026-05-05 22:48 | 41.28185 | -81.53441 | 4007 ft | 250 kts | 353° |
| 2026-05-05 22:49 | 41.29918 | -81.53538 | 4011 ft | 249 kts | 353° |
| 2026-05-05 22:49 | 41.31648 | -81.53626 | 4023 ft | 247 kts | 353° |
| 2026-05-05 22:49 | 41.33374 | -81.53714 | 4029 ft | 249 kts | 353° |
| 2026-05-05 22:49 | 41.35112 | -81.53796 | 4031 ft | 248 kts | 353° |
| 2026-05-05 22:50 | 41.36836 | -81.53885 | 4031 ft | 248 kts | 353° |
| 2026-05-05 22:50 | 41.38574 | -81.53961 | 4034 ft | 250 kts | 353° |
| 2026-05-05 22:50 | 41.40309 | -81.54054 | 4035 ft | 249 kts | 353° |
| 2026-05-05 22:50 | 41.42033 | -81.54139 | 4030 ft | 249 kts | 353° |
| 2026-05-05 22:51 | 41.43759 | -81.54220 | 4026 ft | 249 kts | 353° |
| 2026-05-05 22:51 | 41.45477 | -81.54319 | 4015 ft | 247 kts | 351° |
| 2026-05-05 22:51 | 41.47131 | -81.54860 | 3627 ft | 247 kts | 330° |
| 2026-05-05 22:51 | 41.48576 | -81.56049 | 3059 ft | 238 kts | 321° |
| 2026-05-05 22:52 | 41.49811 | -81.57292 | 3021 ft | 210 kts | 321° |
| 2026-05-05 22:52 | 41.50901 | -81.58375 | 3020 ft | 181 kts | 320° |
| 2026-05-05 22:52 | 41.51855 | -81.59302 | 3015 ft | 161 kts | 321° |
| 2026-05-05 22:52 | 41.52677 | -81.60267 | 2982 ft | 155 kts | 298° |
| 2026-05-05 22:53 | 41.52821 | -81.61628 | 3044 ft | 153 kts | 264° |
| 2026-05-05 22:53 | 41.52681 | -81.63036 | 3044 ft | 154 kts | 264° |
| 2026-05-05 22:53 | 41.52555 | -81.64451 | 3036 ft | 152 kts | 263° |
| 2026-05-05 22:53 | 41.52429 | -81.65870 | 3059 ft | 152 kts | 266° |
| 2026-05-05 22:54 | 41.52214 | -81.67202 | 3023 ft | 147 kts | 255° |
| 2026-05-05 22:54 | 41.51830 | -81.68469 | 3018 ft | 149 kts | 245° |
| 2026-05-05 22:54 | 41.51196 | -81.69575 | 3028 ft | 152 kts | 236° |
| 2026-05-05 22:54 | 41.50506 | -81.70647 | 3028 ft | 153 kts | 236° |
| 2026-05-05 22:55 | 41.49821 | -81.71728 | 3024 ft | 151 kts | 237° |
| 2026-05-05 22:55 | 41.49149 | -81.72808 | 3024 ft | 152 kts | 236° |
| 2026-05-05 22:55 | 41.48462 | -81.73890 | 2944 ft | 153 kts | 237° |
| 2026-05-05 22:55 | 41.47780 | -81.74989 | 2745 ft | 155 kts | 235° |
| 2026-05-05 22:56 | 41.47086 | -81.76087 | 2529 ft | 155 kts | 234° |
| 2026-05-05 22:56 | 41.46390 | -81.77177 | 2321 ft | 146 kts | 237° |
| 2026-05-05 22:56 | 41.45779 | -81.78162 | 2116 ft | 131 kts | 237° |
| 2026-05-05 22:56 | 41.45195 | -81.79100 | 1934 ft | 133 kts | 237° |
| 2026-05-05 22:57 | 41.44600 | -81.80051 | 1759 ft | 138 kts | 236° |
| 2026-05-05 22:57 | 41.44002 | -81.81019 | 1573 ft | 135 kts | 239° |
| 2026-05-05 22:57 | 41.43402 | -81.81997 | 1383 ft | 135 kts | 235° |
| 2026-05-05 22:57 | 41.42786 | -81.82938 | 1174 ft | 135 kts | 236° |
| 2026-05-05 22:58 | 41.42212 | -81.83911 | 1008 ft | 131 kts | 237° |
| 2026-05-05 22:58 | 41.41598 | -81.84816 | 833 ft | 131 kts | 229° |
| 2026-05-05 22:58 | 41.41062 | -81.85653 | 790 ft | 107 kts | 231° |
| 2026-05-05 22:58 | 41.40644 | -81.86304 | 787 ft | 73 kts | 230° |
| 2026-05-05 22:59 | 41.40421 | -81.86622 | 780 ft | 27 kts | 211° |
| 2026-05-05 22:59 | 41.40304 | -81.86639 | 777 ft | 8 kts | 110° |
| 2026-05-05 22:59 | 41.40336 | -81.86519 | 778 ft | 18 kts | 47° |
| 2026-05-05 22:59 | 41.40444 | -81.86385 | 779 ft | 27 kts | 43° |
| 2026-05-05 23:00 | 41.40724 | -81.85961 | 790 ft | 32 kts | 50° |
| 2026-05-05 23:00 | 41.40870 | -81.85732 | 790 ft | 33 kts | 49° |
| 2026-05-05 23:00 | 41.41020 | -81.85507 | 791 ft | 28 kts | 46° |
| 2026-05-05 23:01 | 41.41144 | -81.85317 | 794 ft | 29 kts | 54° |
| 2026-05-05 23:01 | 41.41261 | -81.85214 | 800 ft | 18 kts | 346° |
| 2026-05-05 23:01 | 41.41383 | -81.85334 | 801 ft | 14 kts | 284° |
| 2026-05-05 23:01 | 41.41382 | -81.85422 | 801 ft | 14 kts | 298° |
| 2026-05-05 23:02 | 41.41458 | -81.85560 | 794 ft | 18 kts | 296° |
| 2026-05-05 23:02 | 41.41498 | -81.85605 | 789 ft | 0 kts | 81° |
| 2026-05-05 23:02 | 41.41498 | -81.85604 | 789 ft | 0 kts | 88° |